sensor_id;sensor_type;location;lat;lon;timestamp;P1;durP1;ratioP1;P2;durP2;ratioP2
31043;SDS011;17710;52.520;13.352;2023-09-12T00:01:55;18.38;;;10.55;;
31043;SDS011;17710;52.520;13.352;2023-09-12T00:04:21;16.52;;;10.63;;
31043;SDS011;17710;52.520;13.352;2023-09-12T00:06:47;21.38;;;10.50;;
31043;SDS011;17710;52.520;13.352;2023-09-12T00:09:14;20.38;;;10.05;;
31043;SDS011;17710;52.520;13.352;2023-09-12T00:11:40;17.15;;;9.93;;
31043;SDS011;17710;52.520;13.352;2023-09-12T00:14:09;21.10;;;10.85;;
31043;SDS011;17710;52.520;13.352;2023-09-12T00:16:36;18.52;;;11.23;;
31043;SDS011;17710;52.520;13.352;2023-09-12T00:19:02;17.80;;;11.18;;
31043;SDS011;17710;52.520;13.352;2023-09-12T00:21:29;22.45;;;10.85;;
31043;SDS011;17710;52.520;13.352;2023-09-12T00:23:55;20.90;;;10.80;;
31043;SDS011;17710;52.520;13.352;2023-09-12T00:26:21;19.35;;;10.10;;
31043;SDS011;17710;52.520;13.352;2023-09-12T00:28:48;26.52;;;10.52;;
31043;SDS011;17710;52.520;13.352;2023-09-12T00:31:15;20.40;;;10.82;;
31043;SDS011;17710;52.520;13.352;2023-09-12T00:33:42;16.45;;;9.70;;
31043;SDS011;17710;52.520;13.352;2023-09-12T00:36:11;16.33;;;9.73;;
31043;SDS011;17710;52.520;13.352;2023-09-12T00:38:37;14.93;;;10.35;;
31043;SDS011;17710;52.520;13.352;2023-09-12T00:41:04;16.30;;;10.63;;
31043;SDS011;17710;52.520;13.352;2023-09-12T00:43:30;20.85;;;10.05;;
31043;SDS011;17710;52.520;13.352;2023-09-12T00:45:57;20.75;;;10.20;;
31043;SDS011;17710;52.520;13.352;2023-09-12T00:48:24;17.27;;;10.43;;
31043;SDS011;17710;52.520;13.352;2023-09-12T00:50:52;15.65;;;9.57;;
31043;SDS011;17710;52.520;13.352;2023-09-12T00:53:22;15.85;;;10.48;;
31043;SDS011;17710;52.520;13.352;2023-09-12T00:55:50;21.40;;;10.30;;
31043;SDS011;17710;52.520;13.352;2023-09-12T00:58:21;18.38;;;10.15;;
31043;SDS011;17710;52.520;13.352;2023-09-12T01:00:48;16.88;;;10.15;;
31043;SDS011;17710;52.520;13.352;2023-09-12T01:03:15;15.30;;;10.27;;
31043;SDS011;17710;52.520;13.352;2023-09-12T01:05:43;15.20;;;9.13;;
31043;SDS011;17710;52.520;13.352;2023-09-12T01:08:10;16.52;;;10.38;;
31043;SDS011;17710;52.520;13.352;2023-09-12T01:10:37;14.52;;;9.73;;
31043;SDS011;17710;52.520;13.352;2023-09-12T01:13:03;14.32;;;9.20;;
31043;SDS011;17710;52.520;13.352;2023-09-12T01:15:30;12.77;;;9.40;;
31043;SDS011;17710;52.520;13.352;2023-09-12T01:17:56;19.05;;;10.73;;
31043;SDS011;17710;52.520;13.352;2023-09-12T01:20:24;20.23;;;10.18;;
31043;SDS011;17710;52.520;13.352;2023-09-12T01:22:56;16.20;;;9.55;;
31043;SDS011;17710;52.520;13.352;2023-09-12T01:25:41;17.70;;;9.00;;
31043;SDS011;17710;52.520;13.352;2023-09-12T01:28:22;16.25;;;9.88;;
31043;SDS011;17710;52.520;13.352;2023-09-12T01:30:50;13.25;;;9.32;;
31043;SDS011;17710;52.520;13.352;2023-09-12T01:33:18;16.33;;;9.35;;
31043;SDS011;17710;52.520;13.352;2023-09-12T01:35:44;14.13;;;9.98;;
31043;SDS011;17710;52.520;13.352;2023-09-12T01:38:11;21.02;;;9.82;;
31043;SDS011;17710;52.520;13.352;2023-09-12T01:40:38;14.18;;;9.57;;
31043;SDS011;17710;52.520;13.352;2023-09-12T01:43:09;15.13;;;9.68;;
31043;SDS011;17710;52.520;13.352;2023-09-12T01:45:39;14.65;;;9.38;;
31043;SDS011;17710;52.520;13.352;2023-09-12T01:48:06;16.77;;;10.55;;
31043;SDS011;17710;52.520;13.352;2023-09-12T01:50:33;17.77;;;9.60;;
31043;SDS011;17710;52.520;13.352;2023-09-12T01:53:02;16.80;;;9.68;;
31043;SDS011;17710;52.520;13.352;2023-09-12T01:55:29;16.23;;;9.38;;
31043;SDS011;17710;52.520;13.352;2023-09-12T01:57:57;18.60;;;10.40;;
31043;SDS011;17710;52.520;13.352;2023-09-12T02:00:24;14.35;;;9.65;;
31043;SDS011;17710;52.520;13.352;2023-09-12T02:02:52;15.30;;;9.68;;
31043;SDS011;17710;52.520;13.352;2023-09-12T02:05:20;13.40;;;9.25;;
31043;SDS011;17710;52.520;13.352;2023-09-12T02:07:48;19.35;;;9.85;;
31043;SDS011;17710;52.520;13.352;2023-09-12T02:10:15;11.68;;;8.95;;
31043;SDS011;17710;52.520;13.352;2023-09-12T02:12:41;13.82;;;9.30;;
31043;SDS011;17710;52.520;13.352;2023-09-12T02:15:08;15.45;;;9.43;;
31043;SDS011;17710;52.520;13.352;2023-09-12T02:17:36;17.45;;;9.35;;
31043;SDS011;17710;52.520;13.352;2023-09-12T02:20:05;14.38;;;10.10;;
31043;SDS011;17710;52.520;13.352;2023-09-12T02:22:33;15.05;;;9.43;;
31043;SDS011;17710;52.520;13.352;2023-09-12T02:24:59;14.65;;;9.90;;
31043;SDS011;17710;52.520;13.352;2023-09-12T02:27:26;18.50;;;11.27;;
31043;SDS011;17710;52.520;13.352;2023-09-12T02:29:52;16.42;;;10.15;;
31043;SDS011;17710;52.520;13.352;2023-09-12T02:32:20;15.70;;;10.40;;
31043;SDS011;17710;52.520;13.352;2023-09-12T02:34:46;16.55;;;10.07;;
31043;SDS011;17710;52.520;13.352;2023-09-12T02:37:14;13.85;;;9.20;;
31043;SDS011;17710;52.520;13.352;2023-09-12T02:39:41;16.05;;;9.63;;
31043;SDS011;17710;52.520;13.352;2023-09-12T02:42:08;13.93;;;9.63;;
31043;SDS011;17710;52.520;13.352;2023-09-12T02:44:34;14.30;;;9.18;;
31043;SDS011;17710;52.520;13.352;2023-09-12T02:47:01;15.82;;;9.82;;
31043;SDS011;17710;52.520;13.352;2023-09-12T02:49:27;13.52;;;9.35;;
31043;SDS011;17710;52.520;13.352;2023-09-12T02:51:54;16.70;;;9.50;;
31043;SDS011;17710;52.520;13.352;2023-09-12T02:54:21;12.77;;;9.35;;
31043;SDS011;17710;52.520;13.352;2023-09-12T02:56:48;17.63;;;10.50;;
31043;SDS011;17710;52.520;13.352;2023-09-12T02:59:14;16.83;;;9.40;;
31043;SDS011;17710;52.520;13.352;2023-09-12T03:01:41;21.73;;;10.27;;
31043;SDS011;17710;52.520;13.352;2023-09-12T03:04:07;17.73;;;9.73;;
31043;SDS011;17710;52.520;13.352;2023-09-12T03:06:33;17.80;;;9.60;;
31043;SDS011;17710;52.520;13.352;2023-09-12T03:09:00;13.73;;;9.63;;
31043;SDS011;17710;52.520;13.352;2023-09-12T03:11:29;13.60;;;9.30;;
31043;SDS011;17710;52.520;13.352;2023-09-12T03:13:55;13.13;;;9.30;;
31043;SDS011;17710;52.520;13.352;2023-09-12T03:16:22;16.90;;;9.38;;
31043;SDS011;17710;52.520;13.352;2023-09-12T03:18:49;15.27;;;9.98;;
31043;SDS011;17710;52.520;13.352;2023-09-12T03:21:16;17.55;;;9.70;;
31043;SDS011;17710;52.520;13.352;2023-09-12T03:23:42;17.33;;;10.05;;
31043;SDS011;17710;52.520;13.352;2023-09-12T03:26:08;15.93;;;9.55;;
31043;SDS011;17710;52.520;13.352;2023-09-12T03:28:36;18.50;;;9.65;;
31043;SDS011;17710;52.520;13.352;2023-09-12T03:31:03;18.55;;;10.13;;
31043;SDS011;17710;52.520;13.352;2023-09-12T03:33:32;20.20;;;9.85;;
31043;SDS011;17710;52.520;13.352;2023-09-12T03:35:58;25.73;;;9.82;;
31043;SDS011;17710;52.520;13.352;2023-09-12T03:38:25;22.77;;;10.73;;
31043;SDS011;17710;52.520;13.352;2023-09-12T03:40:51;18.08;;;9.90;;
31043;SDS011;17710;52.520;13.352;2023-09-12T03:43:18;19.35;;;10.45;;
31043;SDS011;17710;52.520;13.352;2023-09-12T03:45:45;23.33;;;10.38;;
31043;SDS011;17710;52.520;13.352;2023-09-12T03:48:12;16.90;;;10.27;;
31043;SDS011;17710;52.520;13.352;2023-09-12T03:50:38;14.10;;;9.30;;
31043;SDS011;17710;52.520;13.352;2023-09-12T03:53:04;15.40;;;9.60;;
31043;SDS011;17710;52.520;13.352;2023-09-12T03:55:31;19.77;;;9.75;;
31043;SDS011;17710;52.520;13.352;2023-09-12T03:57:58;14.68;;;9.38;;
31043;SDS011;17710;52.520;13.352;2023-09-12T04:00:24;14.80;;;9.73;;
31043;SDS011;17710;52.520;13.352;2023-09-12T04:02:52;16.40;;;9.82;;
31043;SDS011;17710;52.520;13.352;2023-09-12T04:05:18;15.93;;;9.98;;
31043;SDS011;17710;52.520;13.352;2023-09-12T04:07:45;16.63;;;9.57;;
31043;SDS011;17710;52.520;13.352;2023-09-12T04:10:12;16.08;;;9.55;;
31043;SDS011;17710;52.520;13.352;2023-09-12T04:12:38;16.10;;;9.02;;
31043;SDS011;17710;52.520;13.352;2023-09-12T04:15:06;12.98;;;9.38;;
31043;SDS011;17710;52.520;13.352;2023-09-12T04:17:32;14.32;;;9.82;;
31043;SDS011;17710;52.520;13.352;2023-09-12T04:20:00;17.02;;;9.60;;
31043;SDS011;17710;52.520;13.352;2023-09-12T04:22:27;17.92;;;9.98;;
31043;SDS011;17710;52.520;13.352;2023-09-12T04:24:54;15.00;;;9.38;;
31043;SDS011;17710;52.520;13.352;2023-09-12T04:27:20;18.38;;;10.25;;
31043;SDS011;17710;52.520;13.352;2023-09-12T04:29:47;13.50;;;9.55;;
31043;SDS011;17710;52.520;13.352;2023-09-12T04:32:13;19.67;;;10.23;;
31043;SDS011;17710;52.520;13.352;2023-09-12T04:34:42;15.20;;;9.45;;
31043;SDS011;17710;52.520;13.352;2023-09-12T04:37:10;15.00;;;9.13;;
31043;SDS011;17710;52.520;13.352;2023-09-12T04:39:36;20.35;;;9.50;;
31043;SDS011;17710;52.520;13.352;2023-09-12T04:42:03;16.13;;;9.18;;
31043;SDS011;17710;52.520;13.352;2023-09-12T04:44:34;22.17;;;9.88;;
31043;SDS011;17710;52.520;13.352;2023-09-12T04:47:00;18.17;;;9.43;;
31043;SDS011;17710;52.520;13.352;2023-09-12T04:49:27;18.15;;;9.60;;
31043;SDS011;17710;52.520;13.352;2023-09-12T04:51:54;17.90;;;9.57;;
31043;SDS011;17710;52.520;13.352;2023-09-12T04:54:22;13.90;;;9.27;;
31043;SDS011;17710;52.520;13.352;2023-09-12T04:56:49;20.77;;;9.95;;
31043;SDS011;17710;52.520;13.352;2023-09-12T04:59:15;16.25;;;10.18;;
31043;SDS011;17710;52.520;13.352;2023-09-12T05:01:42;21.17;;;10.65;;
31043;SDS011;17710;52.520;13.352;2023-09-12T05:04:08;22.40;;;10.70;;
31043;SDS011;17710;52.520;13.352;2023-09-12T05:06:35;17.90;;;10.23;;
31043;SDS011;17710;52.520;13.352;2023-09-12T05:09:02;21.13;;;11.68;;
31043;SDS011;17710;52.520;13.352;2023-09-12T05:11:31;20.83;;;10.15;;
31043;SDS011;17710;52.520;13.352;2023-09-12T05:13:58;23.70;;;11.55;;
31043;SDS011;17710;52.520;13.352;2023-09-12T05:16:24;18.00;;;10.45;;
31043;SDS011;17710;52.520;13.352;2023-09-12T05:18:51;19.88;;;10.55;;
31043;SDS011;17710;52.520;13.352;2023-09-12T05:21:18;19.60;;;10.18;;
31043;SDS011;17710;52.520;13.352;2023-09-12T05:23:44;19.33;;;10.60;;
31043;SDS011;17710;52.520;13.352;2023-09-12T05:26:11;20.02;;;10.88;;
31043;SDS011;17710;52.520;13.352;2023-09-12T05:28:39;20.63;;;10.20;;
31043;SDS011;17710;52.520;13.352;2023-09-12T05:31:05;18.10;;;10.23;;
31043;SDS011;17710;52.520;13.352;2023-09-12T05:33:32;20.42;;;10.23;;
31043;SDS011;17710;52.520;13.352;2023-09-12T05:35:59;17.90;;;10.60;;
31043;SDS011;17710;52.520;13.352;2023-09-12T05:38:25;18.45;;;10.13;;
31043;SDS011;17710;52.520;13.352;2023-09-12T05:40:52;19.05;;;10.23;;
31043;SDS011;17710;52.520;13.352;2023-09-12T05:43:18;17.17;;;10.45;;
31043;SDS011;17710;52.520;13.352;2023-09-12T05:45:46;15.48;;;10.38;;
31043;SDS011;17710;52.520;13.352;2023-09-12T05:48:12;20.52;;;10.65;;
31043;SDS011;17710;52.520;13.352;2023-09-12T05:50:39;19.05;;;10.15;;
31043;SDS011;17710;52.520;13.352;2023-09-12T05:53:05;16.60;;;10.48;;
31043;SDS011;17710;52.520;13.352;2023-09-12T05:55:31;17.20;;;9.80;;
31043;SDS011;17710;52.520;13.352;2023-09-12T05:57:58;18.80;;;9.95;;
31043;SDS011;17710;52.520;13.352;2023-09-12T06:00:24;22.08;;;10.35;;
31043;SDS011;17710;52.520;13.352;2023-09-12T06:02:52;26.13;;;10.75;;
31043;SDS011;17710;52.520;13.352;2023-09-12T06:05:19;17.40;;;10.35;;
31043;SDS011;17710;52.520;13.352;2023-09-12T06:07:45;26.38;;;11.27;;
31043;SDS011;17710;52.520;13.352;2023-09-12T06:10:11;22.95;;;11.30;;
31043;SDS011;17710;52.520;13.352;2023-09-12T06:12:38;20.85;;;10.55;;
31043;SDS011;17710;52.520;13.352;2023-09-12T06:15:05;27.23;;;10.00;;
31043;SDS011;17710;52.520;13.352;2023-09-12T06:17:32;19.90;;;9.82;;
31043;SDS011;17710;52.520;13.352;2023-09-12T06:19:59;22.40;;;9.65;;
31043;SDS011;17710;52.520;13.352;2023-09-12T06:22:26;17.88;;;9.77;;
31043;SDS011;17710;52.520;13.352;2023-09-12T06:24:53;21.55;;;10.00;;
31043;SDS011;17710;52.520;13.352;2023-09-12T06:27:19;19.05;;;11.13;;
31043;SDS011;17710;52.520;13.352;2023-09-12T06:29:45;13.85;;;9.77;;
31043;SDS011;17710;52.520;13.352;2023-09-12T06:32:13;26.20;;;9.80;;
31043;SDS011;17710;52.520;13.352;2023-09-12T06:34:39;20.55;;;9.80;;
31043;SDS011;17710;52.520;13.352;2023-09-12T06:37:07;18.30;;;8.82;;
31043;SDS011;17710;52.520;13.352;2023-09-12T06:39:33;20.48;;;9.00;;
31043;SDS011;17710;52.520;13.352;2023-09-12T06:42:00;24.02;;;7.75;;
31043;SDS011;17710;52.520;13.352;2023-09-12T06:44:27;21.98;;;7.00;;
31043;SDS011;17710;52.520;13.352;2023-09-12T06:46:53;18.02;;;7.32;;
31043;SDS011;17710;52.520;13.352;2023-09-12T06:49:20;18.25;;;7.75;;
31043;SDS011;17710;52.520;13.352;2023-09-12T06:51:46;16.65;;;8.02;;
31043;SDS011;17710;52.520;13.352;2023-09-12T06:54:14;18.27;;;7.57;;
31043;SDS011;17710;52.520;13.352;2023-09-12T06:56:41;24.52;;;7.50;;
31043;SDS011;17710;52.520;13.352;2023-09-12T06:59:08;16.58;;;7.95;;
31043;SDS011;17710;52.520;13.352;2023-09-12T07:01:34;17.88;;;7.22;;
31043;SDS011;17710;52.520;13.352;2023-09-12T07:04:02;16.85;;;7.28;;
31043;SDS011;17710;52.520;13.352;2023-09-12T07:06:28;15.25;;;7.50;;
31043;SDS011;17710;52.520;13.352;2023-09-12T07:08:55;17.95;;;6.60;;
31043;SDS011;17710;52.520;13.352;2023-09-12T07:11:22;16.73;;;6.53;;
31043;SDS011;17710;52.520;13.352;2023-09-12T07:13:49;15.38;;;7.07;;
31043;SDS011;17710;52.520;13.352;2023-09-12T07:16:15;23.63;;;6.97;;
31043;SDS011;17710;52.520;13.352;2023-09-12T07:18:42;12.95;;;6.63;;
31043;SDS011;17710;52.520;13.352;2023-09-12T07:21:08;22.23;;;7.97;;
31043;SDS011;17710;52.520;13.352;2023-09-12T07:23:36;20.05;;;7.50;;
31043;SDS011;17710;52.520;13.352;2023-09-12T07:26:02;24.70;;;8.27;;
31043;SDS011;17710;52.520;13.352;2023-09-12T07:28:31;16.25;;;7.20;;
31043;SDS011;17710;52.520;13.352;2023-09-12T07:30:57;17.45;;;6.78;;
31043;SDS011;17710;52.520;13.352;2023-09-12T07:33:24;12.38;;;6.68;;
31043;SDS011;17710;52.520;13.352;2023-09-12T07:35:51;24.65;;;6.95;;
31043;SDS011;17710;52.520;13.352;2023-09-12T07:38:20;25.05;;;7.70;;
31043;SDS011;17710;52.520;13.352;2023-09-12T07:40:47;20.80;;;6.72;;
31043;SDS011;17710;52.520;13.352;2023-09-12T07:43:14;11.88;;;6.70;;
31043;SDS011;17710;52.520;13.352;2023-09-12T07:45:43;18.63;;;6.22;;
31043;SDS011;17710;52.520;13.352;2023-09-12T07:48:10;16.92;;;6.50;;
31043;SDS011;17710;52.520;13.352;2023-09-12T07:50:37;14.18;;;6.05;;
31043;SDS011;17710;52.520;13.352;2023-09-12T07:53:03;17.10;;;6.03;;
31043;SDS011;17710;52.520;13.352;2023-09-12T07:55:30;23.85;;;7.82;;
31043;SDS011;17710;52.520;13.352;2023-09-12T07:58:01;19.35;;;7.18;;
31043;SDS011;17710;52.520;13.352;2023-09-12T08:00:27;27.13;;;7.95;;
31043;SDS011;17710;52.520;13.352;2023-09-12T08:02:55;39.30;;;11.02;;
31043;SDS011;17710;52.520;13.352;2023-09-12T08:05:25;21.23;;;8.55;;
31043;SDS011;17710;52.520;13.352;2023-09-12T08:07:52;33.47;;;7.00;;
31043;SDS011;17710;52.520;13.352;2023-09-12T08:10:18;33.03;;;7.80;;
31043;SDS011;17710;52.520;13.352;2023-09-12T08:12:45;39.08;;;9.05;;
31043;SDS011;17710;52.520;13.352;2023-09-12T08:15:12;17.48;;;7.13;;
31043;SDS011;17710;52.520;13.352;2023-09-12T08:17:38;29.23;;;7.65;;
31043;SDS011;17710;52.520;13.352;2023-09-12T08:20:07;33.58;;;7.85;;
31043;SDS011;17710;52.520;13.352;2023-09-12T08:22:35;16.35;;;6.65;;
31043;SDS011;17710;52.520;13.352;2023-09-12T08:25:02;24.48;;;8.07;;
31043;SDS011;17710;52.520;13.352;2023-09-12T08:27:29;17.05;;;6.07;;
31043;SDS011;17710;52.520;13.352;2023-09-12T08:29:56;60.58;;;11.07;;
31043;SDS011;17710;52.520;13.352;2023-09-12T08:32:22;52.92;;;10.07;;
31043;SDS011;17710;52.520;13.352;2023-09-12T08:34:49;15.68;;;5.90;;
31043;SDS011;17710;52.520;13.352;2023-09-12T08:37:19;20.10;;;5.78;;
31043;SDS011;17710;52.520;13.352;2023-09-12T08:39:46;21.38;;;6.18;;
31043;SDS011;17710;52.520;13.352;2023-09-12T08:42:13;60.10;;;11.40;;
31043;SDS011;17710;52.520;13.352;2023-09-12T08:44:41;19.85;;;6.03;;
31043;SDS011;17710;52.520;13.352;2023-09-12T08:47:09;106.93;;;15.70;;
31043;SDS011;17710;52.520;13.352;2023-09-12T08:49:36;25.90;;;7.22;;
31043;SDS011;17710;52.520;13.352;2023-09-12T08:52:03;29.48;;;7.32;;
31043;SDS011;17710;52.520;13.352;2023-09-12T08:54:32;30.58;;;6.25;;
31043;SDS011;17710;52.520;13.352;2023-09-12T08:56:59;18.08;;;5.85;;
31043;SDS011;17710;52.520;13.352;2023-09-12T08:59:29;24.23;;;6.40;;
31043;SDS011;17710;52.520;13.352;2023-09-12T09:01:57;19.67;;;6.30;;
31043;SDS011;17710;52.520;13.352;2023-09-12T09:04:26;22.75;;;6.18;;
31043;SDS011;17710;52.520;13.352;2023-09-12T09:06:55;22.40;;;5.68;;
31043;SDS011;17710;52.520;13.352;2023-09-12T09:09:23;23.40;;;6.72;;
31043;SDS011;17710;52.520;13.352;2023-09-12T09:11:52;21.30;;;7.20;;
31043;SDS011;17710;52.520;13.352;2023-09-12T09:14:19;21.98;;;6.50;;
31043;SDS011;17710;52.520;13.352;2023-09-12T09:16:48;28.40;;;6.82;;
31043;SDS011;17710;52.520;13.352;2023-09-12T09:19:15;29.67;;;6.60;;
31043;SDS011;17710;52.520;13.352;2023-09-12T09:21:43;24.67;;;6.80;;
31043;SDS011;17710;52.520;13.352;2023-09-12T09:24:10;23.58;;;6.70;;
31043;SDS011;17710;52.520;13.352;2023-09-12T09:26:42;50.47;;;9.13;;
31043;SDS011;17710;52.520;13.352;2023-09-12T09:29:12;17.65;;;6.32;;
31043;SDS011;17710;52.520;13.352;2023-09-12T09:31:41;22.20;;;6.93;;
31043;SDS011;17710;52.520;13.352;2023-09-12T09:34:12;67.18;;;10.02;;
31043;SDS011;17710;52.520;13.352;2023-09-12T09:36:47;31.08;;;7.68;;
31043;SDS011;17710;52.520;13.352;2023-09-12T09:39:14;26.55;;;6.82;;
31043;SDS011;17710;52.520;13.352;2023-09-12T09:41:42;20.27;;;6.63;;
31043;SDS011;17710;52.520;13.352;2023-09-12T09:44:12;22.90;;;6.95;;
31043;SDS011;17710;52.520;13.352;2023-09-12T09:46:42;28.15;;;7.18;;
31043;SDS011;17710;52.520;13.352;2023-09-12T09:49:10;58.83;;;11.63;;
31043;SDS011;17710;52.520;13.352;2023-09-12T09:51:40;30.45;;;7.85;;
31043;SDS011;17710;52.520;13.352;2023-09-12T09:54:07;20.88;;;7.85;;
31043;SDS011;17710;52.520;13.352;2023-09-12T09:56:37;15.65;;;7.75;;
31043;SDS011;17710;52.520;13.352;2023-09-12T09:59:15;18.80;;;8.20;;
31043;SDS011;17710;52.520;13.352;2023-09-12T10:01:42;22.73;;;7.90;;
31043;SDS011;17710;52.520;13.352;2023-09-12T10:04:09;20.30;;;8.57;;
31043;SDS011;17710;52.520;13.352;2023-09-12T10:06:36;19.67;;;8.65;;
31043;SDS011;17710;52.520;13.352;2023-09-12T10:09:05;20.83;;;8.55;;
31043;SDS011;17710;52.520;13.352;2023-09-12T10:11:37;28.25;;;8.05;;
31043;SDS011;17710;52.520;13.352;2023-09-12T10:14:05;29.23;;;8.55;;
31043;SDS011;17710;52.520;13.352;2023-09-12T10:16:34;15.75;;;7.28;;
31043;SDS011;17710;52.520;13.352;2023-09-12T10:19:04;30.65;;;9.68;;
31043;SDS011;17710;52.520;13.352;2023-09-12T10:21:38;28.75;;;8.30;;
31043;SDS011;17710;52.520;13.352;2023-09-12T10:24:12;27.77;;;8.48;;
31043;SDS011;17710;52.520;13.352;2023-09-12T10:26:41;22.38;;;7.53;;
31043;SDS011;17710;52.520;13.352;2023-09-12T10:29:10;23.10;;;7.75;;
31043;SDS011;17710;52.520;13.352;2023-09-12T10:31:40;26.00;;;7.85;;
31043;SDS011;17710;52.520;13.352;2023-09-12T10:34:07;42.08;;;8.00;;
31043;SDS011;17710;52.520;13.352;2023-09-12T10:36:36;28.02;;;8.25;;
31043;SDS011;17710;52.520;13.352;2023-09-12T10:39:11;20.08;;;6.57;;
31043;SDS011;17710;52.520;13.352;2023-09-12T10:41:45;23.38;;;7.70;;
31043;SDS011;17710;52.520;13.352;2023-09-12T10:44:22;22.90;;;7.63;;
31043;SDS011;17710;52.520;13.352;2023-09-12T10:46:51;32.38;;;7.82;;
31043;SDS011;17710;52.520;13.352;2023-09-12T10:49:19;29.40;;;8.45;;
31043;SDS011;17710;52.520;13.352;2023-09-12T10:51:46;28.52;;;7.55;;
31043;SDS011;17710;52.520;13.352;2023-09-12T10:54:14;28.15;;;7.30;;
31043;SDS011;17710;52.520;13.352;2023-09-12T10:56:41;23.90;;;7.20;;
31043;SDS011;17710;52.520;13.352;2023-09-12T10:59:13;21.98;;;7.68;;
31043;SDS011;17710;52.520;13.352;2023-09-12T11:01:40;23.90;;;7.72;;
31043;SDS011;17710;52.520;13.352;2023-09-12T11:06:58;27.65;;;7.97;;
31043;SDS011;17710;52.520;13.352;2023-09-12T11:09:25;17.15;;;7.10;;
31043;SDS011;17710;52.520;13.352;2023-09-12T11:11:54;22.63;;;6.78;;
31043;SDS011;17710;52.520;13.352;2023-09-12T11:14:22;27.67;;;7.25;;
31043;SDS011;17710;52.520;13.352;2023-09-12T11:19:55;20.20;;;6.65;;
31043;SDS011;17710;52.520;13.352;2023-09-12T11:22:38;15.27;;;7.50;;
31043;SDS011;17710;52.520;13.352;2023-09-12T11:25:15;15.73;;;6.82;;
31043;SDS011;17710;52.520;13.352;2023-09-12T11:28:01;20.27;;;6.35;;
31043;SDS011;17710;52.520;13.352;2023-09-12T11:30:29;19.75;;;5.93;;
31043;SDS011;17710;52.520;13.352;2023-09-12T11:32:57;19.73;;;5.97;;
31043;SDS011;17710;52.520;13.352;2023-09-12T11:35:27;14.65;;;6.63;;
31043;SDS011;17710;52.520;13.352;2023-09-12T11:37:55;22.77;;;6.28;;
31043;SDS011;17710;52.520;13.352;2023-09-12T11:40:23;32.42;;;8.20;;
31043;SDS011;17710;52.520;13.352;2023-09-12T11:42:51;19.70;;;6.75;;
31043;SDS011;17710;52.520;13.352;2023-09-12T11:45:19;17.42;;;6.28;;
31043;SDS011;17710;52.520;13.352;2023-09-12T11:47:48;18.95;;;5.47;;
31043;SDS011;17710;52.520;13.352;2023-09-12T11:50:29;16.80;;;6.00;;
31043;SDS011;17710;52.520;13.352;2023-09-12T11:53:01;41.95;;;8.13;;
31043;SDS011;17710;52.520;13.352;2023-09-12T11:55:30;24.48;;;7.00;;
31043;SDS011;17710;52.520;13.352;2023-09-12T11:57:57;21.23;;;6.47;;
31043;SDS011;17710;52.520;13.352;2023-09-12T12:00:28;12.52;;;5.32;;
31043;SDS011;17710;52.520;13.352;2023-09-12T12:02:55;9.23;;;5.38;;
31043;SDS011;17710;52.520;13.352;2023-09-12T12:05:22;13.80;;;5.35;;
31043;SDS011;17710;52.520;13.352;2023-09-12T12:07:50;18.70;;;6.38;;
31043;SDS011;17710;52.520;13.352;2023-09-12T12:10:17;16.67;;;5.80;;
31043;SDS011;17710;52.520;13.352;2023-09-12T12:12:46;22.45;;;6.75;;
31043;SDS011;17710;52.520;13.352;2023-09-12T12:15:13;25.08;;;6.63;;
31043;SDS011;17710;52.520;13.352;2023-09-12T12:17:40;15.10;;;5.80;;
31043;SDS011;17710;52.520;13.352;2023-09-12T12:20:08;16.17;;;6.40;;
31043;SDS011;17710;52.520;13.352;2023-09-12T12:22:36;19.42;;;4.63;;
31043;SDS011;17710;52.520;13.352;2023-09-12T12:25:08;16.23;;;5.53;;
31043;SDS011;17710;52.520;13.352;2023-09-12T12:27:36;11.35;;;4.60;;
31043;SDS011;17710;52.520;13.352;2023-09-12T12:30:04;30.55;;;7.20;;
31043;SDS011;17710;52.520;13.352;2023-09-12T12:32:32;14.60;;;5.95;;
31043;SDS011;17710;52.520;13.352;2023-09-12T12:34:58;17.60;;;5.45;;
31043;SDS011;17710;52.520;13.352;2023-09-12T12:37:27;15.95;;;5.40;;
31043;SDS011;17710;52.520;13.352;2023-09-12T12:39:58;10.60;;;4.90;;
31043;SDS011;17710;52.520;13.352;2023-09-12T12:42:32;8.05;;;3.92;;
31043;SDS011;17710;52.520;13.352;2023-09-12T12:44:59;17.42;;;5.22;;
31043;SDS011;17710;52.520;13.352;2023-09-12T12:47:25;7.28;;;4.20;;
31043;SDS011;17710;52.520;13.352;2023-09-12T12:49:53;12.93;;;5.15;;
31043;SDS011;17710;52.520;13.352;2023-09-12T12:52:23;8.07;;;4.07;;
31043;SDS011;17710;52.520;13.352;2023-09-12T12:54:50;13.23;;;4.70;;
31043;SDS011;17710;52.520;13.352;2023-09-12T12:57:19;16.58;;;5.40;;
31043;SDS011;17710;52.520;13.352;2023-09-12T12:59:48;12.38;;;5.18;;
31043;SDS011;17710;52.520;13.352;2023-09-12T13:02:15;12.15;;;4.60;;
31043;SDS011;17710;52.520;13.352;2023-09-12T13:04:44;13.77;;;4.60;;
31043;SDS011;17710;52.520;13.352;2023-09-12T13:07:10;9.10;;;4.70;;
31043;SDS011;17710;52.520;13.352;2023-09-12T13:09:37;15.82;;;4.55;;
31043;SDS011;17710;52.520;13.352;2023-09-12T13:12:05;8.98;;;4.68;;
31043;SDS011;17710;52.520;13.352;2023-09-12T13:14:34;9.90;;;4.03;;
31043;SDS011;17710;52.520;13.352;2023-09-12T13:17:02;11.60;;;5.10;;
31043;SDS011;17710;52.520;13.352;2023-09-12T13:19:29;12.05;;;4.57;;
31043;SDS011;17710;52.520;13.352;2023-09-12T13:21:55;13.35;;;5.22;;
31043;SDS011;17710;52.520;13.352;2023-09-12T13:24:24;13.57;;;5.45;;
31043;SDS011;17710;52.520;13.352;2023-09-12T13:26:51;13.15;;;4.47;;
31043;SDS011;17710;52.520;13.352;2023-09-12T13:29:18;18.52;;;5.25;;
31043;SDS011;17710;52.520;13.352;2023-09-12T13:31:45;13.15;;;5.10;;
31043;SDS011;17710;52.520;13.352;2023-09-12T13:34:12;17.48;;;6.65;;
31043;SDS011;17710;52.520;13.352;2023-09-12T13:36:39;14.57;;;5.05;;
31043;SDS011;17710;52.520;13.352;2023-09-12T13:39:06;13.75;;;4.35;;
31043;SDS011;17710;52.520;13.352;2023-09-12T13:41:33;14.98;;;4.50;;
31043;SDS011;17710;52.520;13.352;2023-09-12T13:43:59;11.52;;;4.47;;
31043;SDS011;17710;52.520;13.352;2023-09-12T13:46:26;21.25;;;4.22;;
31043;SDS011;17710;52.520;13.352;2023-09-12T13:48:52;11.02;;;4.05;;
31043;SDS011;17710;52.520;13.352;2023-09-12T13:51:20;15.05;;;4.88;;
31043;SDS011;17710;52.520;13.352;2023-09-12T13:53:46;15.77;;;4.32;;
31043;SDS011;17710;52.520;13.352;2023-09-12T13:56:13;13.77;;;5.03;;
31043;SDS011;17710;52.520;13.352;2023-09-12T13:58:39;15.43;;;4.55;;
31043;SDS011;17710;52.520;13.352;2023-09-12T14:01:06;15.07;;;5.28;;
31043;SDS011;17710;52.520;13.352;2023-09-12T14:03:32;33.30;;;7.95;;
31043;SDS011;17710;52.520;13.352;2023-09-12T14:05:59;14.35;;;4.30;;
31043;SDS011;17710;52.520;13.352;2023-09-12T14:08:27;17.42;;;5.25;;
31043;SDS011;17710;52.520;13.352;2023-09-12T14:10:54;19.52;;;5.47;;
31043;SDS011;17710;52.520;13.352;2023-09-12T14:13:20;19.45;;;5.35;;
31043;SDS011;17710;52.520;13.352;2023-09-12T14:15:47;18.95;;;5.57;;
31043;SDS011;17710;52.520;13.352;2023-09-12T14:18:14;15.23;;;5.22;;
31043;SDS011;17710;52.520;13.352;2023-09-12T14:20:41;16.63;;;7.13;;
31043;SDS011;17710;52.520;13.352;2023-09-12T14:23:08;14.73;;;5.43;;
31043;SDS011;17710;52.520;13.352;2023-09-12T14:25:35;15.30;;;5.53;;
31043;SDS011;17710;52.520;13.352;2023-09-12T14:28:02;15.25;;;5.22;;